Time;durP1;ratioP1;P1;durP2;ratioP2;P2;SDS_P1;SDS_P2;PMS_P1;PMS_P2;Temp;Humidity;BMP_temperature;BMP_pressure;BME280_temperature;BME280_humidity;BME280_pressure;Samples;Min_cycle;Max_cycle;Signal;HPM_P1;HPM_P2
2022/09/22 00:06:00;;;;;;;17.90;11.00;;;;;;;6.74;100.00;99261.90;220853;1277;22616;-79
2022/09/22 00:11:51;;;;;;;;;;;;;;;;;;;;;
2022/09/22 00:18:02;;;;;;;23.00;11.00;;;;;;;6.67;100.00;99258.90;221034;1276;22591;-79
2022/09/22 00:24:18;;;;;;;;;;;;;;;;;;;;;
2022/09/22 00:30:48;;;;;;;;;;;;;;;;;;;;;
2022/09/22 00:36:29;;;;;;;18.80;12.10;;;;;;;6.52;100.00;99259.38;219867;1284;25532;-79
2022/09/22 00:42:19;;;;;;;19.70;12.00;;;;;;;6.49;100.00;99254.77;219899;1282;22551;-79
2022/09/22 00:54:46;;;;;;;;;;;;;;;;;;;;;
2022/09/22 01:01:20;;;;;;;17.40;11.10;;;;;;;6.29;100.00;99256.08;220476;1279;22541;-80
2022/09/22 01:07:56;;;;;;;;;;;;;;;;;;;;;
2022/09/22 01:13:47;;;;;;;15.60;8.60;;;;;;;6.20;100.00;99249.48;220524;1279;22550;-79
2022/09/22 01:21:12;;;;;;;;;;;;;;;;;;;;;
2022/09/22 01:27:53;;;;;;;;;;;;;;;;;;;;;
2022/09/22 01:34:53;;;;;;;;;;;;;;;;;;;;;
2022/09/22 01:41:19;;;;;;;22.00;10.30;;;;;;;6.80;100.00;99226.49;220126;1276;22566;-80
2022/09/22 01:53:50;;;;;;;10.60;7.30;;;;;;;7.05;100.00;99229.59;218981;1276;22570;-79
2022/09/22 02:00:11;;;;;;;18.60;10.10;;;;;;;6.96;100.00;99227.96;221125;1276;25484;-79
2022/09/22 02:05:58;;;;;;;36.60;12.40;;;;;;;7.08;100.00;99233.48;220042;1276;23308;-79
2022/09/22 02:12:25;;;;;;;31.40;12.90;;;;;;;7.20;100.00;99237.22;219884;1282;22550;-79
2022/09/22 02:18:47;;;;;;;41.40;13.10;;;;;;;7.32;100.00;99234.65;220045;1282;22602;-78
2022/09/22 02:25:17;;;;;;;;;;;;;;;;;;;;;
2022/09/22 02:31:11;;;;;;;35.00;13.50;;;;;;;7.49;100.00;99228.41;220864;1278;24292;-79
2022/09/22 02:37:53;;;;;;;;;;;;;;;;;;;;;
2022/09/22 02:50:35;;;;;;;42.90;14.10;;;;;;;7.54;100.00;99224.56;220488;1278;26384;-78
2022/09/22 02:56:59;;;;;;;51.80;15.00;;;;;;;7.57;100.00;99224.57;221216;1276;22564;-79
2022/09/22 03:03:17;;;;;;;85.40;15.80;;;;;;;7.58;100.00;99232.64;219892;1284;22542;-79
2022/09/22 03:10:19;;;;;;;;;;;;;;;;;;;;;
2022/09/22 03:16:31;;;;;;;44.50;12.90;;;;;;;7.55;100.00;99242.64;218933;1287;22722;-79
2022/09/22 03:22:56;;;;;;;78.20;14.50;;;;;;;7.53;100.00;99249.88;218426;1290;23991;-78
2022/09/22 03:29:35;;;;;;;;;;;;;;;;;;;;;
2022/09/22 03:42:34;;;;;;;40.10;12.90;;;;;;;7.48;100.00;99243.70;219059;1282;25528;-78
2022/09/22 03:48:51;;;;;;;32.60;11.20;;;;;;;7.47;100.00;99245.52;220958;1278;22581;-78
2022/09/22 03:55:22;;;;;;;41.50;13.00;;;;;;;7.50;100.00;99244.80;220923;1278;24333;-79
2022/09/22 04:01:48;;;;;;;30.20;14.00;;;;;;;7.56;100.00;99246.70;220811;1277;22577;-80
2022/09/22 04:08:48;;;;;;;;;;;;;;;;;;;;;
2022/09/22 04:15:09;;;;;;;27.40;14.00;;;;;;;7.64;100.00;99241.69;220903;1278;25384;-78
2022/09/22 04:21:48;;;;;;;;;;;;;;;;;;;;;
2022/09/22 04:28:33;;;;;;;36.30;14.90;;;;;;;7.71;100.00;99249.41;220164;1278;22556;-79
2022/09/22 04:34:51;;;;;;;29.50;14.80;;;;;;;7.72;100.00;99248.24;220707;1278;22545;-79
2022/09/22 04:41:17;;;;;;;;;;;;;;;;;;;;;
2022/09/22 04:47:49;;;;;;;;;;;;;;;;;;;;;
2022/09/22 04:54:22;;;;;;;27.10;12.20;;;;;;;7.83;100.00;99250.91;218384;1285;22567;-79
2022/09/22 05:01:34;;;;;;;26.60;13.00;;;;;;;7.85;100.00;99245.75;220374;1281;23450;-79
2022/09/22 05:07:14;;;;;;;;;;;;;;;7.90;100.00;99246.48;219632;1281;22576;-79
2022/09/22 05:13:51;;;;;;;;;;;;;;;;;;;;;
2022/09/22 05:20:30;;;;;;;24.20;11.60;;;;;;;7.96;100.00;99251.84;219475;1284;22727;-79
2022/09/22 05:26:40;;;;;;;22.10;11.50;;;;;;;8.04;100.00;99254.23;219133;1282;24214;-78
2022/09/22 05:32:43;;;;;;;24.20;11.70;;;;;;;8.17;100.00;99255.67;220155;1278;22552;-79
2022/09/22 05:38:30;;;;;;;27.60;11.40;;;;;;;8.26;100.00;99267.73;220913;1278;22678;-79
2022/09/22 05:44:54;;;;;;;24.50;11.90;;;;;;;8.30;100.00;99270.52;221788;1278;23260;-76
2022/09/22 05:51:15;;;;;;;;;;;;;;;;;;;;;
2022/09/22 05:57:26;;;;;;;21.40;9.90;;;;;;;8.38;100.00;99274.88;221757;1277;22766;-78
2022/09/22 06:03:50;;;;;;;21.90;9.30;;;;;;;8.46;100.00;99278.29;222703;1277;22552;-76
2022/09/22 06:09:43;;;;;;;17.80;8.90;;;;;;;8.56;100.00;99286.29;222320;1277;22587;-77
2022/09/22 06:15:53;;;;;;;17.60;8.10;;;;;;;8.72;100.00;99286.98;221999;1278;22551;-78
2022/09/22 06:22:22;;;;;;;16.10;8.80;;;;;;;8.90;100.00;99287.02;221913;1278;22577;-77
2022/09/22 06:28:51;;;;;;;19.70;9.50;;;;;;;9.00;100.00;99290.02;219902;1287;24333;-78
2022/09/22 06:35:05;;;;;;;;;;;;;;;;;;;;;
2022/09/22 06:48:09;;;;;;;;;;;;;;;;;;;;;
2022/09/22 06:54:14;;;;;;;16.60;9.80;;;;;;;9.46;100.00;99306.31;218401;1287;24183;-77
2022/09/22 07:00:46;;;;;;;;;;;;;;;;;;;;;
2022/09/22 07:06:59;;;;;;;15.10;8.20;;;;;;;9.37;100.00;99312.73;220708;1277;23147;-77
2022/09/22 07:13:32;;;;;;;15.00;8.80;;;;;;;9.41;100.00;99312.42;220607;1277;22556;-77
2022/09/22 07:19:14;;;;;;;14.30;7.20;;;;;;;9.46;100.00;99318.52;222182;1277;25376;-78
2022/09/22 07:24:42;;;;;;;10.80;6.60;;;;;;;9.65;100.00;99327.08;222032;1276;22599;-78
2022/09/22 07:30:35;;;;;;;12.50;6.40;;;;;;;9.81;100.00;99323.09;222237;1276;25587;-79
2022/09/22 07:36:58;;;;;;;;;;;;;;;;;;;;;
2022/09/22 07:43:25;;;;;;;12.90;7.50;;;;;;;10.16;100.00;99324.05;218209;1290;24414;-80
2022/09/22 07:49:52;;;;;;;13.90;7.70;;;;;;;10.34;100.00;99325.35;217697;1291;22586;-78
2022/09/22 08:02:45;;;;;;;9.10;6.10;;;;;;;10.74;100.00;99324.98;218368;1287;26261;-83
2022/09/22 08:08:23;;;;;;;8.40;4.60;;;;;;;10.79;100.00;99328.60;219310;1284;22514;-77
2022/09/22 08:13:25;;;;;;;5.30;3.70;;;;;;;10.84;100.00;99327.77;220425;1281;22575;-78
2022/09/22 08:18:35;;;;;;;4.70;3.00;;;;;;;10.91;100.00;99331.33;221624;1277;24298;-75
2022/09/22 08:23:42;;;;;;;4.30;2.70;;;;;;;11.29;100.00;99335.33;220651;1277;23802;-76
2022/09/22 08:29:11;;;;;;;8.70;5.10;;;;;;;11.59;99.77;99335.31;220187;1277;25311;-77
2022/09/22 08:34:59;;;;;;;;;;;;;;;;;;;;;
2022/09/22 08:41:00;;;;;;;5.60;4.20;;;;;;;11.43;98.96;99337.96;221808;1277;22969;-76
2022/09/22 08:52:54;;;;;;;8.20;5.30;;;;;;;11.69;97.62;99345.91;219102;1284;22741;-74
2022/09/22 09:00:01;;;;;;;7.00;3.60;;;;;;;11.63;97.25;99343.77;219183;1284;25627;-74
2022/09/22 09:07:05;;;;;;;4.10;3.20;;;;;;;11.94;97.22;99344.20;219332;1284;22878;-77
2022/09/22 09:13:56;;;;;;;3.20;2.70;;;;;;;12.32;96.13;99340.82;220495;1276;22541;-76
2022/09/22 09:20:29;;;;;;;3.30;2.00;;;;;;;12.16;95.06;99336.75;220039;1278;22550;-77
2022/09/22 09:26:08;;;;;;;3.40;1.90;;;;;;;12.08;94.19;99338.23;220508;1276;25473;-76
2022/09/22 09:31:29;;;;;;;2.00;1.80;;;;;;;11.95;93.78;99335.88;220356;1276;23690;-75
2022/09/22 09:37:01;;;;;;;;;;;;;;;;;;;;;
2022/09/22 09:42:35;;;;;;;6.20;2.00;;;;;;;12.26;93.17;99324.14;220484;1276;22591;-76
2022/09/22 09:49:01;;;;;;;3.90;2.10;;;;;;;12.45;92.39;99326.13;220633;1277;24322;-75
2022/09/22 09:54:27;;;;;;;2.20;1.70;;;;;;;12.67;91.82;99326.49;220066;1279;22554;-74
2022/09/22 10:00:58;;;;;;;2.50;1.40;;;;;;;12.70;90.62;99326.20;219886;1279;24259;-76
2022/09/22 10:06:51;;;;;;;2.70;1.80;;;;;;;12.84;89.65;99322.66;219942;1280;23111;-77
2022/09/22 10:13:22;;;;;;;2.10;1.40;;;;;;;12.88;89.13;99328.90;220476;1276;25069;-77
2022/09/22 10:19:20;;;;;;;2.10;1.50;;;;;;;12.95;89.29;99324.09;220692;1276;23717;-76
2022/09/22 10:25:11;;;;;;;1.90;1.10;;;;;;;13.26;88.65;99324.92;220695;1276;22544;-75
2022/09/22 10:30:41;;;;;;;;;;;;;;;;;;;;;
2022/09/22 10:36:38;;;;;;;1.70;1.30;;;;;;;13.64;85.48;99321.77;220513;1278;22732;-77
2022/09/22 10:42:44;;;;;;;1.90;1.10;;;;;;;13.52;84.61;99316.80;219459;1284;22727;-77
2022/09/22 10:48:38;;;;;;;3.80;1.70;;;;;;;13.52;84.89;99314.44;220521;1277;25383;-76
2022/09/22 11:01:15;;;;;;;;;;;;;;;;;;;;;
2022/09/22 11:14:24;;;;;;;2.00;1.80;;;;;;;14.05;81.63;99302.72;221488;1278;25396;-76
2022/09/22 11:20:20;;;;;;;2.00;1.30;;;;;;;14.12;81.45;99302.23;220338;1277;25364;-76
2022/09/22 11:26:41;;;;;;;3.40;1.50;;;;;;;14.25;81.18;99289.58;219649;1281;22566;-76
2022/09/22 11:33:02;;;;;;;;;;;;;;;;;;;;;
2022/09/22 11:38:57;;;;;;;4.60;1.60;;;;;;;14.45;80.08;99289.19;218567;1287;22589;-76
2022/09/22 11:45:06;;;;;;;1.90;1.70;;;;;;;14.43;80.12;99286.64;219777;1287;22692;-78
2022/09/22 11:51:42;;;;;;;;;;;;;;;;;;;;;
2022/09/22 11:58:27;;;;;;;5.10;3.10;;;;;;;14.49;79.75;99282.58;220257;1276;25402;-78
2022/09/22 12:05:24;;;;;;;;;;;;;;;;;;;;;
2022/09/22 12:11:54;;;;;;;3.20;2.00;;;;;;;14.95;79.92;99269.23;219977;1276;22705;-79
2022/09/22 12:18:34;;;;;;;2.70;1.90;;;;;;;15.06;79.29;99265.21;221616;1277;24413;-79
2022/09/22 12:25:04;;;;;;;1.80;1.50;;;;;;;15.06;79.03;99255.88;221362;1276;22483;-78
2022/09/22 12:31:42;;;;;;;3.50;2.20;;;;;;;14.98;78.70;99257.97;221743;1276;22549;-79
2022/09/22 12:38:03;;;;;;;;;;;;;;;;;;;;;
2022/09/22 12:44:09;;;;;;;2.20;1.70;;;;;;;14.48;78.51;99257.79;221473;1277;22589;-79
2022/09/22 12:50:06;;;;;;;3.80;2.60;;;;;;;14.51;78.56;99250.02;221995;1277;23859;-79
2022/09/22 13:02:48;;;;;;;;;;;;;;;;;;;;;
2022/09/22 13:08:57;;;;;;;2.40;1.80;;;;;;;14.75;77.72;99247.85;221650;1277;22604;-77
2022/09/22 13:15:26;;;;;;;2.20;2.00;;;;;;;14.85;77.33;99237.05;220688;1277;25368;-76
2022/09/22 13:21:00;;;;;;;2.80;2.00;;;;;;;15.12;77.04;99238.52;219724;1277;24170;-77
2022/09/22 13:26:43;;;;;;;3.20;2.00;;;;;;;15.33;77.42;99233.92;221693;1277;22569;-75
2022/09/22 13:39:19;;;;;;;;;;;;;;;;;;;;;
2022/09/22 13:45:53;;;;;;;1.30;1.20;;;;;;;14.81;75.03;99230.08;220408;1277;22542;-75
2022/09/22 13:51:16;;;;;;;2.00;1.20;;;;;;;14.46;76.04;99223.27;216651;1276;5390721;-75
2022/09/22 13:56:45;;;;;;;1.20;1.10;;;;;;;14.11;76.43;99227.61;220586;1276;22640;-75
2022/09/22 14:02:04;;;;;;;1.50;1.20;;;;;;;13.76;77.36;99228.62;220553;1277;25470;-77
2022/09/22 14:08:53;;;;;;;2.40;1.60;;;;;;;13.40;78.19;99224.78;221586;1277;24206;-78
2022/09/22 14:15:39;;;;;;;8.00;5.70;;;;;;;13.21;79.17;99220.88;220517;1276;25458;-76
2022/09/22 14:21:09;;;;;;;2.20;1.40;;;;;;;13.15;79.30;99213.30;221155;1275;22703;-77
2022/09/22 14:26:57;;;;;;;2.20;1.10;;;;;;;13.12;79.62;99216.61;220972;1276;22620;-77
2022/09/22 14:33:03;;;;;;;2.50;1.20;;;;;;;13.13;79.84;99214.18;220578;1276;25257;-76
2022/09/22 14:39:17;;;;;;;1.10;1.00;;;;;;;13.20;80.09;99213.34;221273;1276;22667;-77
2022/09/22 14:45:40;;;;;;;;;;;;;;;;;;;;;
2022/09/22 14:51:46;;;;;;;;;;;;;;;;;;;;;
2022/09/22 14:57:54;;;;;;;;;;;;;;;;;;;;;
2022/09/22 15:10:51;;;;;;;2.80;1.20;;;;;;;12.89;80.59;99207.79;220325;1277;22626;-77
2022/09/22 15:18:12;;;;;;;1.50;0.70;;;;;;;12.70;80.36;99206.41;221229;1276;24395;-78
2022/09/22 15:29:16;;;;;;;2.10;0.90;;;;;;;12.34;80.91;99204.38;220053;1277;24169;-77
2022/09/22 15:35:40;;;;;;;2.70;0.90;;;;;;;12.20;81.24;99202.20;219907;1283;22551;-76
2022/09/22 15:42:11;;;;;;;;;;;;;;;;;;;;;
2022/09/22 15:48:29;;;;;;;1.00;0.90;;;;;;;12.02;81.84;99199.80;219061;1287;22591;-77
2022/09/22 15:55:08;;;;;;;;;;;;;;;;;;;;;
2022/09/22 16:01:04;;;;;;;;;;;;;;;;;;;;;
2022/09/22 16:07:31;;;;;;;2.20;1.40;;;;;;;11.88;82.52;99219.05;219410;1281;24400;-77
2022/09/22 16:14:00;;;;;;;;;;;;;;;;;;;;;
2022/09/22 16:19:44;;;;;;;2.10;1.20;;;;;;;11.66;83.25;99217.45;220912;1276;22590;-75
2022/09/22 16:26:22;;;;;;;;;;;;;;;;;;;;;
2022/09/22 16:32:33;;;;;;;1.70;1.10;;;;;;;11.40;83.96;99213.36;220037;1276;22580;-77
2022/09/22 16:38:45;;;;;;;;;;;;;;;;;;;;;
2022/09/22 16:46:25;;;;;;;3.00;1.90;;;;;;;11.17;84.88;99205.67;220972;1277;22553;-76
2022/09/22 16:51:35;;;;;;;3.90;1.60;;;;;;;11.08;85.10;99204.58;220720;1276;22732;-75
2022/09/22 16:58:01;;;;;;;2.00;1.60;;;;;;;10.99;85.35;99207.91;218812;1284;22582;-77
2022/09/22 17:04:41;;;;;;;;;;;;;;;;;;;;;
2022/09/22 17:10:53;;;;;;;4.40;2.30;;;;;;;10.73;86.14;99210.84;219530;1284;26028;-76
2022/09/22 17:17:06;;;;;;;2.90;2.20;;;;;;;10.60;86.42;99214.73;219993;1281;22572;-75
2022/09/22 17:23:30;;;;;;;3.00;1.80;;;;;;;10.49;86.83;99212.49;219189;1281;24382;-76
2022/09/22 17:36:13;;;;;;;;;;;;;;;;;;;;;
2022/09/22 17:42:20;;;;;;;4.80;2.40;;;;;;;10.34;87.80;99218.23;220250;1281;22717;-76
2022/09/22 17:55:09;;;;;;;5.10;3.10;;;;;;;10.22;88.46;99221.54;220118;1281;22539;-76
2022/09/22 18:01:26;;;;;;;;;;;;;;;;;;;;;
2022/09/22 18:07:10;;;;;;;3.90;2.70;;;;;;;10.10;88.94;99230.89;219067;1287;22569;-76
2022/09/22 18:12:53;;;;;;;6.20;3.10;;;;;;;10.05;89.03;99237.72;218773;1287;24236;-75
2022/09/22 18:19:04;;;;;;;;;;;;;;;9.96;89.41;99230.20;219327;1284;22575;-76
2022/09/22 18:24:55;;;;;;;8.50;4.40;;;;;;;9.83;89.54;99240.67;219918;1281;25347;-78
2022/09/22 18:30:29;;;;;;;6.00;4.50;;;;;;;9.70;90.00;99244.70;220440;1276;22623;-76
2022/09/22 18:36:36;;;;;;;9.60;6.90;;;;;;;9.55;90.36;99250.94;220004;1276;25448;-75
2022/09/22 18:41:53;;;;;;;19.90;11.90;;;;;;;9.39;90.65;99253.43;221097;1276;24979;-76
2022/09/22 18:47:46;;;;;;;12.60;7.60;;;;;;;9.27;90.98;99256.95;220927;1278;22714;-76
2022/09/22 18:53:45;;;;;;;11.60;6.70;;;;;;;9.14;91.21;99251.29;221109;1276;25263;-76
2022/09/22 19:05:27;;;;;;;14.40;9.60;;;;;;;8.99;91.86;99252.29;220760;1278;22545;-76
2022/09/22 19:11:12;;;;;;;17.30;10.90;;;;;;;8.92;92.29;99242.94;220926;1276;23227;-77
2022/09/22 19:16:41;;;;;;;18.70;12.60;;;;;;;8.87;92.58;99244.00;220093;1276;22560;-78
2022/09/22 19:28:52;;;;;;;16.60;10.00;;;;;;;8.71;92.98;99250.48;219735;1279;22688;-76
2022/09/22 19:34:10;;;;;;;19.90;12.00;;;;;;;8.66;93.33;99251.39;220212;1278;23359;-76
2022/09/22 19:39:31;;;;;;;30.60;16.80;;;;;;;8.61;93.47;99249.98;220203;1279;22705;-77
2022/09/22 19:44:55;;;;;;;31.90;19.20;;;;;;;8.58;93.74;99248.21;220126;1277;22906;-75
2022/09/22 19:50:12;;;;;;;37.20;18.90;;;;;;;8.53;93.89;99252.95;219734;1277;22546;-77
2022/09/22 19:55:18;;;;;;;29.90;16.40;;;;;;;8.49;94.17;99254.91;220175;1278;25434;-75
2022/09/22 20:01:05;;;;;;;29.30;16.20;;;;;;;8.47;94.26;99259.60;220184;1278;22749;-76
2022/09/22 20:07:13;;;;;;;27.00;12.70;;;;;;;8.45;94.54;99256.23;219894;1278;23337;-75
2022/09/22 20:27:06;;;;;;;19.80;11.10;;;;;;;8.50;95.06;99239.55;221036;1278;24133;-76
2022/09/22 20:33:17;;;;;;;;;;;;;;;;;;;;;
2022/09/22 20:39:27;;;;;;;19.70;10.10;;;;;;;8.58;95.38;99240.89;220122;1278;22713;-76
2022/09/22 20:44:58;;;;;;;18.40;9.50;;;;;;;8.63;95.34;99244.06;220440;1279;25372;-76
2022/09/22 20:51:36;;;;;;;;;;;;;;;;;;;;;
2022/09/22 20:58:24;;;;;;;21.00;10.90;;;;;;;8.66;95.55;99243.31;219461;1281;25272;-76
2022/09/22 21:05:08;;;;;;;16.80;9.10;;;;;;;8.66;95.72;99238.40;220534;1281;22701;-76
2022/09/22 21:11:56;;;;;;;20.40;10.70;;;;;;;8.65;95.79;99238.35;220253;1279;22608;-76
2022/09/22 21:18:16;;;;;;;19.00;10.60;;;;;;;8.65;96.04;99237.81;220902;1278;22550;-76
2022/09/22 21:24:31;;;;;;;21.50;11.00;;;;;;;8.66;96.13;99234.30;220047;1278;22644;-76
2022/09/22 21:30:39;;;;;;;22.80;12.10;;;;;;;8.66;96.16;99238.77;220079;1278;22612;-76
2022/09/22 21:36:37;;;;;;;23.60;12.10;;;;;;;8.64;96.25;99228.41;220138;1276;22576;-75
2022/09/22 21:43:08;;;;;;;22.60;12.90;;;;;;;8.61;96.27;99228.56;220860;1277;22567;-76
2022/09/22 21:49:31;;;;;;;;;;;;;;;;;;;;;
2022/09/22 21:55:48;;;;;;;22.10;11.20;;;;;;;8.49;96.34;99226.71;220958;1276;25372;-76
2022/09/22 22:01:58;;;;;;;;;;;;;;;;;;;;;
2022/09/22 22:08:21;;;;;;;15.90;9.40;;;;;;;8.42;96.93;99227.05;220567;1276;22599;-78
2022/09/22 22:20:10;;;;;;;17.30;9.60;;;;;;;8.33;97.23;99236.89;220918;1276;22593;-76
2022/09/22 22:26:11;;;;;;;15.30;9.50;;;;;;;8.33;97.41;99229.89;220090;1276;22544;-77
2022/09/22 22:32:34;;;;;;;15.50;8.80;;;;;;;8.33;97.71;99224.30;220991;1276;23295;-76
2022/09/22 22:38:33;;;;;;;15.70;9.20;;;;;;;8.33;97.69;99214.05;219886;1278;22588;-76
2022/09/22 22:44:26;;;;;;;14.40;8.20;;;;;;;8.34;97.87;99208.71;219860;1279;22519;-75
2022/09/22 22:51:10;;;;;;;16.50;9.40;;;;;;;8.33;97.85;99205.77;220697;1277;24459;-77
2022/09/22 23:04:44;;;;;;;;;;;;;;;;;;;;;
2022/09/22 23:11:31;;;;;;;11.90;7.30;;;;;;;8.23;98.18;99200.08;220990;1276;22610;-76
2022/09/22 23:17:46;;;;;;;13.50;6.90;;;;;;;8.17;98.25;99193.12;220583;1276;22726;-76
2022/09/22 23:23:24;;;;;;;11.20;6.30;;;;;;;8.10;98.22;99197.00;219759;1278;22561;-76
2022/09/22 23:29:19;;;;;;;;;;;;;;;;;;;;;
2022/09/22 23:35:46;;;;;;;8.60;5.50;;;;;;;7.94;98.42;99190.84;220028;1277;22543;-76
2022/09/22 23:48:17;;;;;;;9.60;6.30;;;;;;;7.83;98.60;99185.89;220291;1278;22749;-76
2022/09/22 23:54:33;;;;;;;13.60;6.90;;;;;;;7.80;98.85;99179.90;220431;1280;22659;-76
